sensor_id;sensor_type;location;lat;lon;timestamp;pressure;altitude;pressure_sealevel;temperature;humidity
51530;BME280;37613;51.788;21.582;2023-11-21T00:01:37;99330.55;;;-1.06;100.00
51530;BME280;37613;51.788;21.582;2023-11-21T00:05:39;99332.68;;;-1.05;100.00
51530;BME280;37613;51.788;21.582;2023-11-21T00:09:43;99339.10;;;-1.03;100.00
51530;BME280;37613;51.788;21.582;2023-11-21T00:13:45;99350.59;;;-1.02;100.00
51530;BME280;37613;51.788;21.582;2023-11-21T00:17:47;99360.55;;;-1.01;100.00
51530;BME280;37613;51.788;21.582;2023-11-21T00:21:49;99366.17;;;-1.01;100.00
51530;BME280;37613;51.788;21.582;2023-11-21T00:25:52;99374.40;;;-1.03;100.00
51530;BME280;37613;51.788;21.582;2023-11-21T00:29:54;99371.91;;;-1.03;100.00
51530;BME280;37613;51.788;21.582;2023-11-21T00:33:56;99370.39;;;-1.02;100.00
51530;BME280;37613;51.788;21.582;2023-11-21T00:37:58;99365.52;;;-1.02;100.00
51530;BME280;37613;51.788;21.582;2023-11-21T00:42:00;99369.27;;;-1.01;100.00
51530;BME280;37613;51.788;21.582;2023-11-21T00:46:06;99373.48;;;-1.03;100.00
51530;BME280;37613;51.788;21.582;2023-11-21T00:50:11;99371.08;;;-1.05;100.00
51530;BME280;37613;51.788;21.582;2023-11-21T00:54:13;99370.58;;;-1.08;100.00
51530;BME280;37613;51.788;21.582;2023-11-21T00:58:15;99375.02;;;-1.10;100.00
51530;BME280;37613;51.788;21.582;2023-11-21T01:02:18;99377.22;;;-1.12;100.00
51530;BME280;37613;51.788;21.582;2023-11-21T01:06:20;99379.64;;;-1.14;100.00
51530;BME280;37613;51.788;21.582;2023-11-21T01:10:22;99379.71;;;-1.14;100.00
51530;BME280;37613;51.788;21.582;2023-11-21T01:14:24;99377.36;;;-1.15;100.00
51530;BME280;37613;51.788;21.582;2023-11-21T01:18:29;99374.20;;;-1.14;100.00
51530;BME280;37613;51.788;21.582;2023-11-21T01:22:31;99378.89;;;-1.12;100.00
51530;BME280;37613;51.788;21.582;2023-11-21T01:26:34;99388.70;;;-1.09;100.00
51530;BME280;37613;51.788;21.582;2023-11-21T01:30:36;99396.60;;;-1.07;100.00
51530;BME280;37613;51.788;21.582;2023-11-21T01:34:38;99397.05;;;-1.08;100.00
51530;BME280;37613;51.788;21.582;2023-11-21T01:38:40;99398.67;;;-1.08;100.00
51530;BME280;37613;51.788;21.582;2023-11-21T01:42:45;99393.94;;;-1.10;100.00
51530;BME280;37613;51.788;21.582;2023-11-21T01:46:48;99395.05;;;-1.09;100.00
51530;BME280;37613;51.788;21.582;2023-11-21T01:50:50;99392.11;;;-1.07;100.00
51530;BME280;37613;51.788;21.582;2023-11-21T01:54:53;99395.58;;;-1.10;100.00
51530;BME280;37613;51.788;21.582;2023-11-21T01:58:56;99402.00;;;-1.13;100.00
51530;BME280;37613;51.788;21.582;2023-11-21T02:02:58;99402.30;;;-1.16;100.00
51530;BME280;37613;51.788;21.582;2023-11-21T02:07:01;99399.00;;;-1.17;100.00
51530;BME280;37613;51.788;21.582;2023-11-21T02:11:03;99397.71;;;-1.18;100.00
51530;BME280;37613;51.788;21.582;2023-11-21T02:15:05;99397.41;;;-1.22;100.00
51530;BME280;37613;51.788;21.582;2023-11-21T02:19:18;99399.18;;;-1.27;100.00
51530;BME280;37613;51.788;21.582;2023-11-21T02:23:22;99402.62;;;-1.31;100.00
51530;BME280;37613;51.788;21.582;2023-11-21T02:27:25;99400.91;;;-1.33;100.00
51530;BME280;37613;51.788;21.582;2023-11-21T02:31:29;99397.53;;;-1.37;100.00
51530;BME280;37613;51.788;21.582;2023-11-21T02:35:34;99396.16;;;-1.39;100.00
51530;BME280;37613;51.788;21.582;2023-11-21T02:39:36;99395.61;;;-1.43;100.00
51530;BME280;37613;51.788;21.582;2023-11-21T02:43:39;99394.86;;;-1.47;100.00
51530;BME280;37613;51.788;21.582;2023-11-21T02:47:43;99391.54;;;-1.49;100.00
51530;BME280;37613;51.788;21.582;2023-11-21T02:51:45;99397.30;;;-1.53;100.00
51530;BME280;37613;51.788;21.582;2023-11-21T02:55:47;99404.16;;;-1.62;100.00
51530;BME280;37613;51.788;21.582;2023-11-21T02:59:51;99411.79;;;-1.68;100.00
51530;BME280;37613;51.788;21.582;2023-11-21T03:03:54;99413.45;;;-1.72;100.00
51530;BME280;37613;51.788;21.582;2023-11-21T03:07:57;99418.30;;;-1.74;100.00
51530;BME280;37613;51.788;21.582;2023-11-21T03:11:59;99420.66;;;-1.76;100.00
51530;BME280;37613;51.788;21.582;2023-11-21T03:16:01;99421.52;;;-1.78;100.00
51530;BME280;37613;51.788;21.582;2023-11-21T03:20:05;99427.80;;;-1.75;100.00
51530;BME280;37613;51.788;21.582;2023-11-21T03:24:08;99435.58;;;-1.72;100.00
51530;BME280;37613;51.788;21.582;2023-11-21T03:28:10;99441.96;;;-1.70;100.00
51530;BME280;37613;51.788;21.582;2023-11-21T03:32:13;99445.67;;;-1.61;100.00
51530;BME280;37613;51.788;21.582;2023-11-21T03:36:15;99444.46;;;-1.54;100.00
51530;BME280;37613;51.788;21.582;2023-11-21T03:40:17;99441.73;;;-1.59;100.00
51530;BME280;37613;51.788;21.582;2023-11-21T03:44:20;99435.08;;;-1.65;100.00
51530;BME280;37613;51.788;21.582;2023-11-21T03:48:22;99434.92;;;-1.67;100.00
51530;BME280;37613;51.788;21.582;2023-11-21T03:52:27;99442.02;;;-1.70;100.00
51530;BME280;37613;51.788;21.582;2023-11-21T03:56:30;99449.95;;;-1.74;100.00
51530;BME280;37613;51.788;21.582;2023-11-21T04:00:32;99457.20;;;-1.74;100.00
51530;BME280;37613;51.788;21.582;2023-11-21T04:04:37;99460.36;;;-1.75;100.00
51530;BME280;37613;51.788;21.582;2023-11-21T04:08:39;99463.29;;;-1.76;100.00
51530;BME280;37613;51.788;21.582;2023-11-21T04:12:41;99463.71;;;-1.77;100.00
51530;BME280;37613;51.788;21.582;2023-11-21T04:16:44;99457.29;;;-1.76;100.00
51530;BME280;37613;51.788;21.582;2023-11-21T04:20:46;99457.70;;;-1.76;100.00
51530;BME280;37613;51.788;21.582;2023-11-21T04:24:49;99463.04;;;-1.76;100.00
51530;BME280;37613;51.788;21.582;2023-11-21T04:28:51;99468.05;;;-1.74;100.00
51530;BME280;37613;51.788;21.582;2023-11-21T04:32:53;99470.86;;;-1.74;100.00
51530;BME280;37613;51.788;21.582;2023-11-21T04:36:55;99478.27;;;-1.72;100.00
51530;BME280;37613;51.788;21.582;2023-11-21T04:40:57;99477.35;;;-1.71;100.00
51530;BME280;37613;51.788;21.582;2023-11-21T04:44:59;99480.56;;;-1.70;100.00
51530;BME280;37613;51.788;21.582;2023-11-21T04:49:01;99481.95;;;-1.70;100.00
51530;BME280;37613;51.788;21.582;2023-11-21T04:53:04;99487.78;;;-1.69;100.00
51530;BME280;37613;51.788;21.582;2023-11-21T04:57:07;99491.96;;;-1.67;100.00
51530;BME280;37613;51.788;21.582;2023-11-21T05:01:09;99495.17;;;-1.66;100.00
51530;BME280;37613;51.788;21.582;2023-11-21T05:05:11;99498.14;;;-1.65;100.00
51530;BME280;37613;51.788;21.582;2023-11-21T05:09:14;99502.05;;;-1.66;100.00
51530;BME280;37613;51.788;21.582;2023-11-21T05:13:17;99501.61;;;-1.68;100.00
51530;BME280;37613;51.788;21.582;2023-11-21T05:17:20;99502.69;;;-1.72;100.00
51530;BME280;37613;51.788;21.582;2023-11-21T05:21:22;99496.60;;;-1.74;100.00
51530;BME280;37613;51.788;21.582;2023-11-21T05:25:25;99498.05;;;-1.74;100.00
51530;BME280;37613;51.788;21.582;2023-11-21T05:29:27;99502.56;;;-1.76;100.00
51530;BME280;37613;51.788;21.582;2023-11-21T05:33:29;99510.73;;;-1.79;100.00
51530;BME280;37613;51.788;21.582;2023-11-21T05:37:31;99519.77;;;-1.82;100.00
51530;BME280;37613;51.788;21.582;2023-11-21T05:41:33;99523.45;;;-1.83;100.00
51530;BME280;37613;51.788;21.582;2023-11-21T05:45:36;99530.17;;;-1.83;100.00
51530;BME280;37613;51.788;21.582;2023-11-21T05:49:38;99538.83;;;-1.84;100.00
51530;BME280;37613;51.788;21.582;2023-11-21T05:53:40;99547.16;;;-1.85;100.00
51530;BME280;37613;51.788;21.582;2023-11-21T05:57:45;99554.67;;;-1.83;100.00
51530;BME280;37613;51.788;21.582;2023-11-21T06:01:47;99560.11;;;-1.80;100.00
51530;BME280;37613;51.788;21.582;2023-11-21T06:05:49;99564.99;;;-1.80;100.00
51530;BME280;37613;51.788;21.582;2023-11-21T06:09:51;99571.70;;;-1.81;100.00
51530;BME280;37613;51.788;21.582;2023-11-21T06:13:53;99574.20;;;-1.83;100.00
51530;BME280;37613;51.788;21.582;2023-11-21T06:17:55;99577.95;;;-1.84;100.00
51530;BME280;37613;51.788;21.582;2023-11-21T06:21:57;99585.41;;;-1.83;100.00
51530;BME280;37613;51.788;21.582;2023-11-21T06:25:59;99588.42;;;-1.82;100.00
51530;BME280;37613;51.788;21.582;2023-11-21T06:30:01;99588.15;;;-1.79;100.00
51530;BME280;37613;51.788;21.582;2023-11-21T06:34:03;99589.80;;;-1.76;100.00
51530;BME280;37613;51.788;21.582;2023-11-21T06:38:05;99582.55;;;-1.75;100.00
51530;BME280;37613;51.788;21.582;2023-11-21T06:42:07;99578.02;;;-1.75;100.00
51530;BME280;37613;51.788;21.582;2023-11-21T06:46:10;99585.81;;;-1.75;100.00
51530;BME280;37613;51.788;21.582;2023-11-21T06:50:13;99588.66;;;-1.79;100.00
51530;BME280;37613;51.788;21.582;2023-11-21T06:54:15;99598.86;;;-1.82;100.00
51530;BME280;37613;51.788;21.582;2023-11-21T06:58:17;99607.31;;;-1.82;100.00
51530;BME280;37613;51.788;21.582;2023-11-21T07:02:19;99609.92;;;-1.85;100.00
51530;BME280;37613;51.788;21.582;2023-11-21T07:06:21;99605.52;;;-1.84;100.00
51530;BME280;37613;51.788;21.582;2023-11-21T07:10:23;99608.48;;;-1.84;100.00
51530;BME280;37613;51.788;21.582;2023-11-21T07:14:25;99617.97;;;-1.85;100.00
51530;BME280;37613;51.788;21.582;2023-11-21T07:18:27;99624.55;;;-1.83;100.00
51530;BME280;37613;51.788;21.582;2023-11-21T07:22:29;99630.33;;;-1.78;100.00
51530;BME280;37613;51.788;21.582;2023-11-21T07:26:32;99630.56;;;-1.74;100.00
51530;BME280;37613;51.788;21.582;2023-11-21T07:30:35;99634.65;;;-1.75;100.00
51530;BME280;37613;51.788;21.582;2023-11-21T07:34:37;99640.81;;;-1.77;100.00
51530;BME280;37613;51.788;21.582;2023-11-21T07:38:39;99643.23;;;-1.81;100.00
51530;BME280;37613;51.788;21.582;2023-11-21T07:42:41;99652.72;;;-1.82;100.00
51530;BME280;37613;51.788;21.582;2023-11-21T07:46:44;99663.14;;;-1.81;100.00
51530;BME280;37613;51.788;21.582;2023-11-21T07:50:46;99665.02;;;-1.83;100.00
51530;BME280;37613;51.788;21.582;2023-11-21T07:54:49;99661.95;;;-1.86;100.00
51530;BME280;37613;51.788;21.582;2023-11-21T07:58:52;99658.24;;;-1.83;100.00
51530;BME280;37613;51.788;21.582;2023-11-21T08:02:55;99656.02;;;-1.81;100.00
51530;BME280;37613;51.788;21.582;2023-11-21T08:06:57;99658.55;;;-1.80;100.00
51530;BME280;37613;51.788;21.582;2023-11-21T08:11:00;99659.30;;;-1.80;100.00
51530;BME280;37613;51.788;21.582;2023-11-21T08:15:03;99664.83;;;-1.80;100.00
51530;BME280;37613;51.788;21.582;2023-11-21T08:19:05;99667.25;;;-1.79;100.00
51530;BME280;37613;51.788;21.582;2023-11-21T08:23:07;99666.20;;;-1.80;100.00
51530;BME280;37613;51.788;21.582;2023-11-21T08:27:10;99673.60;;;-1.85;100.00
51530;BME280;37613;51.788;21.582;2023-11-21T08:31:12;99678.16;;;-1.89;100.00
51530;BME280;37613;51.788;21.582;2023-11-21T08:35:14;99681.62;;;-1.90;100.00
51530;BME280;37613;51.788;21.582;2023-11-21T08:39:16;99684.71;;;-1.90;100.00
51530;BME280;37613;51.788;21.582;2023-11-21T08:43:21;99682.81;;;-1.91;100.00
51530;BME280;37613;51.788;21.582;2023-11-21T08:47:23;99678.45;;;-1.89;100.00
51530;BME280;37613;51.788;21.582;2023-11-21T08:51:28;99681.77;;;-1.89;100.00
51530;BME280;37613;51.788;21.582;2023-11-21T08:55:30;99679.60;;;-1.89;100.00
51530;BME280;37613;51.788;21.582;2023-11-21T08:59:32;99686.11;;;-1.86;100.00
51530;BME280;37613;51.788;21.582;2023-11-21T09:03:35;99691.11;;;-1.83;100.00
51530;BME280;37613;51.788;21.582;2023-11-21T09:07:39;99695.99;;;-1.83;100.00
51530;BME280;37613;51.788;21.582;2023-11-21T09:11:45;99698.99;;;-1.84;100.00
51530;BME280;37613;51.788;21.582;2023-11-21T09:15:47;99701.55;;;-1.82;100.00
51530;BME280;37613;51.788;21.582;2023-11-21T09:19:51;99704.40;;;-1.82;100.00
51530;BME280;37613;51.788;21.582;2023-11-21T09:23:53;99706.05;;;-1.81;100.00
51530;BME280;37613;51.788;21.582;2023-11-21T09:27:55;99708.19;;;-1.80;100.00
51530;BME280;37613;51.788;21.582;2023-11-21T09:31:59;99713.10;;;-1.78;100.00
51530;BME280;37613;51.788;21.582;2023-11-21T09:36:03;99717.23;;;-1.75;100.00
51530;BME280;37613;51.788;21.582;2023-11-21T09:40:10;99715.46;;;-1.73;100.00
51530;BME280;37613;51.788;21.582;2023-11-21T09:44:18;99712.17;;;-1.70;100.00
51530;BME280;37613;51.788;21.582;2023-11-21T09:48:20;99708.95;;;-1.68;100.00
51530;BME280;37613;51.788;21.582;2023-11-21T09:52:27;99712.83;;;-1.67;100.00
51530;BME280;37613;51.788;21.582;2023-11-21T09:56:32;99711.05;;;-1.67;100.00
51530;BME280;37613;51.788;21.582;2023-11-21T10:00:34;99714.80;;;-1.66;100.00
51530;BME280;37613;51.788;21.582;2023-11-21T10:04:37;99716.42;;;-1.63;100.00
51530;BME280;37613;51.788;21.582;2023-11-21T10:08:39;99720.55;;;-1.57;100.00
51530;BME280;37613;51.788;21.582;2023-11-21T10:12:42;99721.45;;;-1.54;100.00
51530;BME280;37613;51.788;21.582;2023-11-21T10:16:46;99730.49;;;-1.50;100.00
51530;BME280;37613;51.788;21.582;2023-11-21T10:20:49;99730.83;;;-1.46;100.00
51530;BME280;37613;51.788;21.582;2023-11-21T10:24:54;99728.10;;;-1.47;100.00
51530;BME280;37613;51.788;21.582;2023-11-21T10:28:57;99729.80;;;-1.50;100.00
51530;BME280;37613;51.788;21.582;2023-11-21T10:33:00;99729.73;;;-1.50;100.00
51530;BME280;37613;51.788;21.582;2023-11-21T10:37:13;99731.48;;;-1.51;100.00
51530;BME280;37613;51.788;21.582;2023-11-21T10:41:17;99734.63;;;-1.52;100.00
51530;BME280;37613;51.788;21.582;2023-11-21T10:45:20;99734.81;;;-1.49;100.00
51530;BME280;37613;51.788;21.582;2023-11-21T10:49:26;99739.75;;;-1.48;100.00
51530;BME280;37613;51.788;21.582;2023-11-21T10:53:29;99736.88;;;-1.46;100.00
51530;BME280;37613;51.788;21.582;2023-11-21T10:57:33;99742.54;;;-1.44;100.00
51530;BME280;37613;51.788;21.582;2023-11-21T11:01:35;99742.72;;;-1.43;100.00
51530;BME280;37613;51.788;21.582;2023-11-21T11:05:38;99742.86;;;-1.44;100.00
51530;BME280;37613;51.788;21.582;2023-11-21T11:09:41;99741.61;;;-1.46;100.00
51530;BME280;37613;51.788;21.582;2023-11-21T11:13:46;99739.68;;;-1.47;100.00
51530;BME280;37613;51.788;21.582;2023-11-21T11:17:48;99741.19;;;-1.49;100.00
51530;BME280;37613;51.788;21.582;2023-11-21T11:22:04;99740.97;;;-1.50;100.00
51530;BME280;37613;51.788;21.582;2023-11-21T11:30:39;99738.11;;;-1.52;100.00
51530;BME280;37613;51.788;21.582;2023-11-21T11:34:55;99736.55;;;-1.52;100.00
51530;BME280;37613;51.788;21.582;2023-11-21T11:38:59;99738.04;;;-1.48;100.00
51530;BME280;37613;51.788;21.582;2023-11-21T11:43:04;99750.02;;;-1.45;100.00
51530;BME280;37613;51.788;21.582;2023-11-21T11:47:28;99750.92;;;-1.42;100.00
51530;BME280;37613;51.788;21.582;2023-11-21T11:51:35;99755.25;;;-1.36;100.00
51530;BME280;37613;51.788;21.582;2023-11-21T11:55:39;99756.42;;;-1.36;100.00
51530;BME280;37613;51.788;21.582;2023-11-21T12:00:14;99760.84;;;-1.36;100.00
51530;BME280;37613;51.788;21.582;2023-11-21T12:04:30;99762.28;;;-1.37;100.00
51530;BME280;37613;51.788;21.582;2023-11-21T12:08:34;99767.69;;;-1.41;100.00
51530;BME280;37613;51.788;21.582;2023-11-21T12:12:42;99771.21;;;-1.44;100.00
51530;BME280;37613;51.788;21.582;2023-11-21T12:16:45;99773.00;;;-1.52;100.00
51530;BME280;37613;51.788;21.582;2023-11-21T12:20:47;99773.98;;;-1.60;100.00
51530;BME280;37613;51.788;21.582;2023-11-21T12:24:52;99773.74;;;-1.64;100.00
51530;BME280;37613;51.788;21.582;2023-11-21T12:28:54;99776.45;;;-1.63;100.00
51530;BME280;37613;51.788;21.582;2023-11-21T12:32:59;99778.15;;;-1.66;100.00
51530;BME280;37613;51.788;21.582;2023-11-21T12:37:02;99783.12;;;-1.70;100.00
51530;BME280;37613;51.788;21.582;2023-11-21T12:41:05;99787.62;;;-1.73;100.00
51530;BME280;37613;51.788;21.582;2023-11-21T12:45:09;99791.73;;;-1.77;100.00
51530;BME280;37613;51.788;21.582;2023-11-21T12:49:22;99799.80;;;-1.80;100.00
51530;BME280;37613;51.788;21.582;2023-11-21T12:53:24;99803.02;;;-1.82;100.00
51530;BME280;37613;51.788;21.582;2023-11-21T12:57:27;99801.24;;;-1.83;100.00
51530;BME280;37613;51.788;21.582;2023-11-21T13:01:30;99805.87;;;-1.83;100.00
51530;BME280;37613;51.788;21.582;2023-11-21T13:05:35;99813.39;;;-1.83;100.00
51530;BME280;37613;51.788;21.582;2023-11-21T13:09:40;99814.09;;;-1.81;100.00
51530;BME280;37613;51.788;21.582;2023-11-21T13:13:43;99817.27;;;-1.81;100.00
51530;BME280;37613;51.788;21.582;2023-11-21T13:17:45;99823.89;;;-1.78;100.00
51530;BME280;37613;51.788;21.582;2023-11-21T13:21:47;99829.98;;;-1.79;100.00
51530;BME280;37613;51.788;21.582;2023-11-21T13:25:51;99838.46;;;-1.80;100.00
51530;BME280;37613;51.788;21.582;2023-11-21T13:29:53;99846.29;;;-1.82;100.00
51530;BME280;37613;51.788;21.582;2023-11-21T13:33:56;99850.16;;;-1.84;100.00
51530;BME280;37613;51.788;21.582;2023-11-21T13:38:05;99857.00;;;-1.85;100.00
51530;BME280;37613;51.788;21.582;2023-11-21T13:42:08;99859.14;;;-1.86;100.00
51530;BME280;37613;51.788;21.582;2023-11-21T13:46:13;99862.55;;;-1.86;100.00
51530;BME280;37613;51.788;21.582;2023-11-21T13:50:19;99866.45;;;-1.87;100.00
51530;BME280;37613;51.788;21.582;2023-11-21T13:54:25;99863.30;;;-1.86;100.00
51530;BME280;37613;51.788;21.582;2023-11-21T13:58:27;99865.48;;;-1.86;100.00
51530;BME280;37613;51.788;21.582;2023-11-21T14:02:48;99867.06;;;-1.89;100.00
51530;BME280;37613;51.788;21.582;2023-11-21T14:06:50;99870.52;;;-1.91;100.00
51530;BME280;37613;51.788;21.582;2023-11-21T14:10:56;99875.67;;;-1.92;100.00
51530;BME280;37613;51.788;21.582;2023-11-21T14:15:00;99886.26;;;-1.93;100.00
51530;BME280;37613;51.788;21.582;2023-11-21T14:19:06;99886.10;;;-1.93;100.00
51530;BME280;37613;51.788;21.582;2023-11-21T14:23:17;99892.27;;;-1.95;100.00
51530;BME280;37613;51.788;21.582;2023-11-21T14:27:20;99901.44;;;-1.98;100.00
51530;BME280;37613;51.788;21.582;2023-11-21T14:31:22;99914.51;;;-1.99;100.00
51530;BME280;37613;51.788;21.582;2023-11-21T14:35:25;99919.23;;;-2.01;100.00
51530;BME280;37613;51.788;21.582;2023-11-21T14:39:28;99928.34;;;-2.02;100.00
51530;BME280;37613;51.788;21.582;2023-11-21T14:43:31;99937.39;;;-2.02;100.00
51530;BME280;37613;51.788;21.582;2023-11-21T14:47:36;99943.80;;;-2.00;100.00
51530;BME280;37613;51.788;21.582;2023-11-21T14:51:46;99955.13;;;-2.00;100.00
51530;BME280;37613;51.788;21.582;2023-11-21T14:56:06;99966.48;;;-2.01;100.00
51530;BME280;37613;51.788;21.582;2023-11-21T15:00:10;99969.93;;;-2.02;100.00
51530;BME280;37613;51.788;21.582;2023-11-21T15:04:32;99968.11;;;-2.01;100.00
51530;BME280;37613;51.788;21.582;2023-11-21T15:08:38;99967.59;;;-2.00;100.00
51530;BME280;37613;51.788;21.582;2023-11-21T15:12:45;99976.27;;;-2.00;100.00
51530;BME280;37613;51.788;21.582;2023-11-21T15:16:46;99978.23;;;-2.02;100.00
51530;BME280;37613;51.788;21.582;2023-11-21T15:20:52;99984.59;;;-2.03;100.00
51530;BME280;37613;51.788;21.582;2023-11-21T15:24:55;99992.59;;;-2.04;100.00
51530;BME280;37613;51.788;21.582;2023-11-21T15:28:57;99997.17;;;-2.05;100.00
51530;BME280;37613;51.788;21.582;2023-11-21T15:33:00;100008.89;;;-2.07;100.00
51530;BME280;37613;51.788;21.582;2023-11-21T15:37:04;100004.62;;;-2.08;100.00
51530;BME280;37613;51.788;21.582;2023-11-21T15:41:09;100004.97;;;-2.09;100.00
51530;BME280;37613;51.788;21.582;2023-11-21T15:45:13;100004.36;;;-2.09;100.00
51530;BME280;37613;51.788;21.582;2023-11-21T15:49:15;100011.33;;;-2.10;100.00
51530;BME280;37613;51.788;21.582;2023-11-21T15:53:18;100023.20;;;-2.07;100.00
51530;BME280;37613;51.788;21.582;2023-11-21T15:57:20;100032.17;;;-2.07;100.00
51530;BME280;37613;51.788;21.582;2023-11-21T16:01:24;100028.17;;;-2.10;100.00
51530;BME280;37613;51.788;21.582;2023-11-21T16:05:27;100024.40;;;-2.12;100.00
51530;BME280;37613;51.788;21.582;2023-11-21T16:09:30;100028.84;;;-2.15;100.00
51530;BME280;37613;51.788;21.582;2023-11-21T16:13:32;100030.80;;;-2.18;100.00
51530;BME280;37613;51.788;21.582;2023-11-21T16:17:36;100035.19;;;-2.20;100.00
51530;BME280;37613;51.788;21.582;2023-11-21T16:21:38;100043.86;;;-2.20;100.00
51530;BME280;37613;51.788;21.582;2023-11-21T16:25:40;100052.21;;;-2.20;100.00
51530;BME280;37613;51.788;21.582;2023-11-21T16:29:42;100053.36;;;-2.22;100.00
51530;BME280;37613;51.788;21.582;2023-11-21T16:33:44;100063.30;;;-2.25;100.00
51530;BME280;37613;51.788;21.582;2023-11-21T16:37:46;100067.60;;;-2.26;100.00
51530;BME280;37613;51.788;21.582;2023-11-21T16:41:50;100071.52;;;-2.26;100.00
51530;BME280;37613;51.788;21.582;2023-11-21T16:45:53;100077.22;;;-2.29;100.00
51530;BME280;37613;51.788;21.582;2023-11-21T16:49:56;100083.21;;;-2.31;100.00
51530;BME280;37613;51.788;21.582;2023-11-21T16:53:58;100093.00;;;-2.32;100.00
51530;BME280;37613;51.788;21.582;2023-11-21T16:58:00;100100.60;;;-2.34;100.00
51530;BME280;37613;51.788;21.582;2023-11-21T17:02:02;100103.40;;;-2.35;100.00
51530;BME280;37613;51.788;21.582;2023-11-21T17:06:04;100107.05;;;-2.31;100.00
51530;BME280;37613;51.788;21.582;2023-11-21T17:10:08;100108.30;;;-2.17;100.00
51530;BME280;37613;51.788;21.582;2023-11-21T17:14:12;100112.86;;;-2.17;100.00
51530;BME280;37613;51.788;21.582;2023-11-21T17:18:14;100123.83;;;-2.19;100.00
51530;BME280;37613;51.788;21.582;2023-11-21T17:22:16;100131.23;;;-2.25;100.00
51530;BME280;37613;51.788;21.582;2023-11-21T17:26:18;100136.24;;;-2.28;100.00
51530;BME280;37613;51.788;21.582;2023-11-21T17:30:20;100140.48;;;-2.33;100.00
51530;BME280;37613;51.788;21.582;2023-11-21T17:34:22;100144.55;;;-2.37;100.00
51530;BME280;37613;51.788;21.582;2023-11-21T17:38:25;100148.45;;;-2.41;100.00
51530;BME280;37613;51.788;21.582;2023-11-21T17:42:27;100147.89;;;-2.45;100.00
51530;BME280;37613;51.788;21.582;2023-11-21T17:46:30;100153.63;;;-2.46;100.00
51530;BME280;37613;51.788;21.582;2023-11-21T17:50:32;100164.93;;;-2.47;100.00
51530;BME280;37613;51.788;21.582;2023-11-21T17:54:34;100171.13;;;-2.48;100.00
51530;BME280;37613;51.788;21.582;2023-11-21T17:58:38;100170.71;;;-2.49;100.00
51530;BME280;37613;51.788;21.582;2023-11-21T18:02:40;100169.75;;;-2.50;100.00
51530;BME280;37613;51.788;21.582;2023-11-21T18:06:43;100175.23;;;-2.50;100.00
51530;BME280;37613;51.788;21.582;2023-11-21T18:10:46;100179.95;;;-2.50;100.00
51530;BME280;37613;51.788;21.582;2023-11-21T18:14:48;100182.59;;;-2.52;100.00
51530;BME280;37613;51.788;21.582;2023-11-21T18:18:53;100188.92;;;-2.54;100.00
51530;BME280;37613;51.788;21.582;2023-11-21T18:22:56;100193.95;;;-2.55;100.00
51530;BME280;37613;51.788;21.582;2023-11-21T18:26:58;100193.98;;;-2.56;100.00
51530;BME280;37613;51.788;21.582;2023-11-21T18:31:05;100196.91;;;-2.58;100.00
51530;BME280;37613;51.788;21.582;2023-11-21T18:35:09;100198.33;;;-2.58;100.00
51530;BME280;37613;51.788;21.582;2023-11-21T18:39:12;100204.65;;;-2.57;100.00
51530;BME280;37613;51.788;21.582;2023-11-21T18:43:20;100206.90;;;-2.58;100.00
51530;BME280;37613;51.788;21.582;2023-11-21T18:47:23;100214.40;;;-2.59;100.00
51530;BME280;37613;51.788;21.582;2023-11-21T18:51:26;100218.44;;;-2.58;100.00
51530;BME280;37613;51.788;21.582;2023-11-21T18:55:28;100217.52;;;-2.56;100.00
51530;BME280;37613;51.788;21.582;2023-11-21T18:59:31;100221.27;;;-2.54;100.00
51530;BME280;37613;51.788;21.582;2023-11-21T19:03:33;100223.61;;;-2.52;100.00
51530;BME280;37613;51.788;21.582;2023-11-21T19:07:37;100226.98;;;-2.53;100.00
51530;BME280;37613;51.788;21.582;2023-11-21T19:11:40;100231.07;;;-2.52;100.00
51530;BME280;37613;51.788;21.582;2023-11-21T19:15:42;100237.95;;;-2.49;100.00
51530;BME280;37613;51.788;21.582;2023-11-21T19:19:46;100247.96;;;-2.48;100.00
51530;BME280;37613;51.788;21.582;2023-11-21T19:23:50;100251.50;;;-2.52;100.00
51530;BME280;37613;51.788;21.582;2023-11-21T19:27:53;100256.75;;;-2.55;100.00
51530;BME280;37613;51.788;21.582;2023-11-21T19:31:55;100264.33;;;-2.58;100.00
51530;BME280;37613;51.788;21.582;2023-11-21T19:35:58;100266.41;;;-2.59;100.00
51530;BME280;37613;51.788;21.582;2023-11-21T19:40:00;100265.90;;;-2.60;100.00
51530;BME280;37613;51.788;21.582;2023-11-21T19:44:02;100268.29;;;-2.62;100.00
51530;BME280;37613;51.788;21.582;2023-11-21T19:48:05;100271.56;;;-2.63;100.00
51530;BME280;37613;51.788;21.582;2023-11-21T19:52:10;100277.42;;;-2.64;100.00
51530;BME280;37613;51.788;21.582;2023-11-21T19:56:13;100280.39;;;-2.63;100.00
51530;BME280;37613;51.788;21.582;2023-11-21T20:00:16;100286.69;;;-2.64;100.00
51530;BME280;37613;51.788;21.582;2023-11-21T20:04:21;100297.47;;;-2.64;100.00
51530;BME280;37613;51.788;21.582;2023-11-21T20:08:25;100300.65;;;-2.66;100.00
51530;BME280;37613;51.788;21.582;2023-11-21T20:12:29;100301.31;;;-2.67;100.00
51530;BME280;37613;51.788;21.582;2023-11-21T20:16:38;100310.16;;;-2.68;100.00
51530;BME280;37613;51.788;21.582;2023-11-21T20:20:43;100313.65;;;-2.70;100.00
51530;BME280;37613;51.788;21.582;2023-11-21T20:24:46;100319.53;;;-2.72;100.00
51530;BME280;37613;51.788;21.582;2023-11-21T20:28:52;100322.05;;;-2.74;100.00
51530;BME280;37613;51.788;21.582;2023-11-21T20:32:55;100322.62;;;-2.75;100.00
51530;BME280;37613;51.788;21.582;2023-11-21T20:37:01;100336.63;;;-2.76;100.00
51530;BME280;37613;51.788;21.582;2023-11-21T20:41:04;100346.47;;;-2.77;100.00
51530;BME280;37613;51.788;21.582;2023-11-21T20:45:14;100351.78;;;-2.78;100.00
51530;BME280;37613;51.788;21.582;2023-11-21T20:49:18;100361.41;;;-2.79;100.00
51530;BME280;37613;51.788;21.582;2023-11-21T20:53:20;100368.73;;;-2.81;100.00
51530;BME280;37613;51.788;21.582;2023-11-21T20:57:22;100371.35;;;-2.82;100.00